KJCT/JCT METAR and TAF weather

Enter ICAO airport designator
Station Type Date Time Source
KJCT METAR 2019/10/23 12:51 UTC NOAA

KJCT 231251Z AUTO 30003KT 10SM CLR 09/08 A3008 RMK AO2 SLP162 T00940078


Station Type Date Time Source
KJCT Decoded METAR 2019/10/23 12:51 UTC NOAA

KIMBLE COUNTY AIRPORT, TX, United States (KJCT) 30-31N 099-46W 523M
Oct 23, 2019 - 08:51 AM EDT / 2019.10.23 1251 UTC
Wind: from the WNW (300 degrees) at 3 MPH (3 KT):0
Visibility: 10 mile(s):0
Sky conditions: clear
Temperature: 48.9 F (9.4 C)
Dew Point: 46.0 F (7.8 C)
Relative Humidity: 89%
Pressure (altimeter): 30.08 in. Hg (1018 hPa)
ob: KJCT 231251Z AUTO 30003KT 10SM CLR 09/08 A3008 RMK AO2 SLP162 T00940078
cycle: 13

Station Type Date Time Source
KJCT TAF 2019/10/23 12:27 UTC NOAA

TAF KJCT 231124Z 2312/2412 18004KT P6SM SKC
FM231500 19015G23KT P6SM SKC
FM240000 16008KT P6SM SKC
FM240800 17007KT P6SM BKN015

Example: see airport list